sensor_id;sensor_type;location;lat;lon;timestamp;P1;durP1;ratioP1;P2;durP2;ratioP2
3022;SDS011;1521;53.584;9.938;2024-01-07T00:01:25;3.50;;;2.50;;
3022;SDS011;1521;53.584;9.938;2024-01-07T00:03:51;7.03;;;3.17;;
3022;SDS011;1521;53.584;9.938;2024-01-07T00:06:17;5.53;;;2.67;;
3022;SDS011;1521;53.584;9.938;2024-01-07T00:08:42;5.00;;;3.40;;
3022;SDS011;1521;53.584;9.938;2024-01-07T00:11:12;7.57;;;2.80;;
3022;SDS011;1521;53.584;9.938;2024-01-07T00:13:38;3.47;;;2.67;;
3022;SDS011;1521;53.584;9.938;2024-01-07T00:16:04;4.63;;;2.60;;
3022;SDS011;1521;53.584;9.938;2024-01-07T00:18:30;3.90;;;2.10;;
3022;SDS011;1521;53.584;9.938;2024-01-07T00:20:55;4.43;;;2.20;;
3022;SDS011;1521;53.584;9.938;2024-01-07T00:23:21;4.40;;;2.70;;
3022;SDS011;1521;53.584;9.938;2024-01-07T00:25:46;3.63;;;2.57;;
3022;SDS011;1521;53.584;9.938;2024-01-07T00:28:12;4.50;;;2.63;;
3022;SDS011;1521;53.584;9.938;2024-01-07T00:30:38;8.00;;;2.90;;
3022;SDS011;1521;53.584;9.938;2024-01-07T00:33:04;7.10;;;2.70;;
3022;SDS011;1521;53.584;9.938;2024-01-07T00:35:29;3.90;;;2.60;;
3022;SDS011;1521;53.584;9.938;2024-01-07T00:37:55;4.43;;;2.73;;
3022;SDS011;1521;53.584;9.938;2024-01-07T00:40:22;5.03;;;3.00;;
3022;SDS011;1521;53.584;9.938;2024-01-07T00:42:48;3.37;;;2.70;;
3022;SDS011;1521;53.584;9.938;2024-01-07T00:45:14;5.50;;;2.70;;
3022;SDS011;1521;53.584;9.938;2024-01-07T00:47:39;3.30;;;2.83;;
3022;SDS011;1521;53.584;9.938;2024-01-07T00:50:05;5.70;;;2.93;;
3022;SDS011;1521;53.584;9.938;2024-01-07T00:52:30;7.00;;;2.90;;
3022;SDS011;1521;53.584;9.938;2024-01-07T00:54:56;4.20;;;2.60;;
3022;SDS011;1521;53.584;9.938;2024-01-07T00:57:22;3.63;;;2.37;;
3022;SDS011;1521;53.584;9.938;2024-01-07T00:59:47;4.10;;;2.27;;
3022;SDS011;1521;53.584;9.938;2024-01-07T01:02:15;5.80;;;2.73;;
3022;SDS011;1521;53.584;9.938;2024-01-07T01:04:40;3.20;;;2.87;;
3022;SDS011;1521;53.584;9.938;2024-01-07T01:07:06;3.47;;;3.10;;
3022;SDS011;1521;53.584;9.938;2024-01-07T01:09:33;5.30;;;3.40;;
3022;SDS011;1521;53.584;9.938;2024-01-07T01:11:58;3.00;;;2.50;;
3022;SDS011;1521;53.584;9.938;2024-01-07T01:14:24;4.17;;;2.90;;
3022;SDS011;1521;53.584;9.938;2024-01-07T01:16:49;7.93;;;2.80;;
3022;SDS011;1521;53.584;9.938;2024-01-07T01:19:15;5.67;;;2.50;;
3022;SDS011;1521;53.584;9.938;2024-01-07T01:21:41;5.50;;;2.83;;
3022;SDS011;1521;53.584;9.938;2024-01-07T01:24:07;5.93;;;3.07;;
3022;SDS011;1521;53.584;9.938;2024-01-07T01:26:33;3.67;;;2.80;;
3022;SDS011;1521;53.584;9.938;2024-01-07T01:28:58;5.43;;;2.97;;
3022;SDS011;1521;53.584;9.938;2024-01-07T01:31:24;4.63;;;3.03;;
3022;SDS011;1521;53.584;9.938;2024-01-07T01:33:49;5.17;;;2.60;;
3022;SDS011;1521;53.584;9.938;2024-01-07T01:36:15;3.33;;;2.80;;
3022;SDS011;1521;53.584;9.938;2024-01-07T01:38:40;4.27;;;2.70;;
3022;SDS011;1521;53.584;9.938;2024-01-07T01:41:06;4.80;;;3.03;;
3022;SDS011;1521;53.584;9.938;2024-01-07T01:43:31;6.03;;;3.73;;
3022;SDS011;1521;53.584;9.938;2024-01-07T01:45:57;4.33;;;3.40;;
3022;SDS011;1521;53.584;9.938;2024-01-07T01:48:24;4.83;;;3.37;;
3022;SDS011;1521;53.584;9.938;2024-01-07T01:50:51;3.73;;;3.03;;
3022;SDS011;1521;53.584;9.938;2024-01-07T01:53:19;2.83;;;2.20;;
3022;SDS011;1521;53.584;9.938;2024-01-07T01:55:45;4.07;;;2.80;;
3022;SDS011;1521;53.584;9.938;2024-01-07T01:58:11;7.07;;;2.90;;
3022;SDS011;1521;53.584;9.938;2024-01-07T02:00:38;3.87;;;2.57;;
3022;SDS011;1521;53.584;9.938;2024-01-07T02:03:04;3.80;;;2.13;;
3022;SDS011;1521;53.584;9.938;2024-01-07T02:05:29;9.50;;;2.80;;
3022;SDS011;1521;53.584;9.938;2024-01-07T02:07:55;4.63;;;3.00;;
3022;SDS011;1521;53.584;9.938;2024-01-07T02:10:21;4.97;;;2.50;;
3022;SDS011;1521;53.584;9.938;2024-01-07T02:12:47;3.73;;;2.63;;
3022;SDS011;1521;53.584;9.938;2024-01-07T02:15:13;3.63;;;2.53;;
3022;SDS011;1521;53.584;9.938;2024-01-07T02:17:39;7.57;;;2.90;;
3022;SDS011;1521;53.584;9.938;2024-01-07T02:20:05;3.20;;;2.50;;
3022;SDS011;1521;53.584;9.938;2024-01-07T02:22:31;5.67;;;2.87;;
3022;SDS011;1521;53.584;9.938;2024-01-07T02:24:56;5.20;;;2.57;;
3022;SDS011;1521;53.584;9.938;2024-01-07T02:27:22;6.60;;;3.13;;
3022;SDS011;1521;53.584;9.938;2024-01-07T02:29:47;4.53;;;2.70;;
3022;SDS011;1521;53.584;9.938;2024-01-07T02:32:13;4.27;;;2.53;;
3022;SDS011;1521;53.584;9.938;2024-01-07T02:34:38;5.07;;;3.00;;
3022;SDS011;1521;53.584;9.938;2024-01-07T02:37:04;5.50;;;2.83;;
3022;SDS011;1521;53.584;9.938;2024-01-07T02:39:30;5.70;;;3.50;;
3022;SDS011;1521;53.584;9.938;2024-01-07T02:41:55;4.40;;;3.27;;
3022;SDS011;1521;53.584;9.938;2024-01-07T02:44:21;5.17;;;3.17;;
3022;SDS011;1521;53.584;9.938;2024-01-07T02:46:46;9.90;;;3.10;;
3022;SDS011;1521;53.584;9.938;2024-01-07T02:49:12;4.33;;;2.43;;
3022;SDS011;1521;53.584;9.938;2024-01-07T02:51:38;4.03;;;2.90;;
3022;SDS011;1521;53.584;9.938;2024-01-07T02:54:04;3.00;;;2.53;;
3022;SDS011;1521;53.584;9.938;2024-01-07T02:56:29;5.37;;;2.60;;
3022;SDS011;1521;53.584;9.938;2024-01-07T02:58:55;3.03;;;2.40;;
3022;SDS011;1521;53.584;9.938;2024-01-07T03:01:24;3.57;;;2.30;;
3022;SDS011;1521;53.584;9.938;2024-01-07T03:03:49;3.37;;;2.50;;
3022;SDS011;1521;53.584;9.938;2024-01-07T03:06:15;3.70;;;2.63;;
3022;SDS011;1521;53.584;9.938;2024-01-07T03:08:41;5.53;;;2.90;;
3022;SDS011;1521;53.584;9.938;2024-01-07T03:11:07;4.57;;;2.40;;
3022;SDS011;1521;53.584;9.938;2024-01-07T03:13:33;3.20;;;2.60;;
3022;SDS011;1521;53.584;9.938;2024-01-07T03:15:59;3.87;;;2.30;;
3022;SDS011;1521;53.584;9.938;2024-01-07T03:18:24;4.07;;;2.30;;
3022;SDS011;1521;53.584;9.938;2024-01-07T03:20:51;4.33;;;2.47;;
3022;SDS011;1521;53.584;9.938;2024-01-07T03:23:17;3.83;;;2.30;;
3022;SDS011;1521;53.584;9.938;2024-01-07T03:25:43;3.87;;;2.40;;
3022;SDS011;1521;53.584;9.938;2024-01-07T03:28:09;5.03;;;2.50;;
3022;SDS011;1521;53.584;9.938;2024-01-07T03:30:34;6.00;;;2.23;;
3022;SDS011;1521;53.584;9.938;2024-01-07T03:33:00;2.40;;;1.90;;
3022;SDS011;1521;53.584;9.938;2024-01-07T03:35:26;2.90;;;2.07;;
3022;SDS011;1521;53.584;9.938;2024-01-07T03:37:52;2.30;;;2.10;;
3022;SDS011;1521;53.584;9.938;2024-01-07T03:40:18;3.40;;;2.20;;
3022;SDS011;1521;53.584;9.938;2024-01-07T03:42:43;3.67;;;1.80;;
3022;SDS011;1521;53.584;9.938;2024-01-07T03:45:09;7.20;;;2.57;;
3022;SDS011;1521;53.584;9.938;2024-01-07T03:47:35;3.33;;;2.30;;
3022;SDS011;1521;53.584;9.938;2024-01-07T03:50:00;2.90;;;2.00;;
3022;SDS011;1521;53.584;9.938;2024-01-07T03:52:26;3.20;;;1.70;;
3022;SDS011;1521;53.584;9.938;2024-01-07T03:54:51;8.60;;;2.13;;
3022;SDS011;1521;53.584;9.938;2024-01-07T03:57:17;6.53;;;2.70;;
3022;SDS011;1521;53.584;9.938;2024-01-07T03:59:42;2.93;;;2.03;;
3022;SDS011;1521;53.584;9.938;2024-01-07T04:02:08;3.83;;;2.10;;
3022;SDS011;1521;53.584;9.938;2024-01-07T04:04:34;4.03;;;2.33;;
3022;SDS011;1521;53.584;9.938;2024-01-07T04:07:00;3.10;;;1.97;;
3022;SDS011;1521;53.584;9.938;2024-01-07T04:09:26;4.00;;;2.30;;
3022;SDS011;1521;53.584;9.938;2024-01-07T04:11:51;3.83;;;2.13;;
3022;SDS011;1521;53.584;9.938;2024-01-07T04:14:17;3.97;;;2.30;;
3022;SDS011;1521;53.584;9.938;2024-01-07T04:16:43;4.77;;;2.60;;
3022;SDS011;1521;53.584;9.938;2024-01-07T04:19:08;5.40;;;2.20;;
3022;SDS011;1521;53.584;9.938;2024-01-07T04:21:34;3.10;;;2.20;;
3022;SDS011;1521;53.584;9.938;2024-01-07T04:24:00;5.20;;;1.97;;
3022;SDS011;1521;53.584;9.938;2024-01-07T04:26:26;7.20;;;2.10;;
3022;SDS011;1521;53.584;9.938;2024-01-07T04:28:52;2.27;;;1.80;;
3022;SDS011;1521;53.584;9.938;2024-01-07T04:31:17;2.57;;;1.90;;
3022;SDS011;1521;53.584;9.938;2024-01-07T04:33:43;3.43;;;1.80;;
3022;SDS011;1521;53.584;9.938;2024-01-07T04:36:08;2.73;;;1.53;;
3022;SDS011;1521;53.584;9.938;2024-01-07T04:38:34;3.63;;;1.40;;
3022;SDS011;1521;53.584;9.938;2024-01-07T04:41:00;2.40;;;1.60;;
3022;SDS011;1521;53.584;9.938;2024-01-07T04:43:26;2.03;;;1.30;;
3022;SDS011;1521;53.584;9.938;2024-01-07T04:45:51;5.03;;;2.00;;
3022;SDS011;1521;53.584;9.938;2024-01-07T04:48:17;3.17;;;1.57;;
3022;SDS011;1521;53.584;9.938;2024-01-07T04:50:42;2.40;;;1.50;;
3022;SDS011;1521;53.584;9.938;2024-01-07T04:53:08;1.87;;;1.67;;
3022;SDS011;1521;53.584;9.938;2024-01-07T04:55:34;2.70;;;1.50;;
3022;SDS011;1521;53.584;9.938;2024-01-07T04:57:59;2.03;;;1.80;;
3022;SDS011;1521;53.584;9.938;2024-01-07T05:00:26;2.43;;;1.77;;
3022;SDS011;1521;53.584;9.938;2024-01-07T05:02:52;7.00;;;1.63;;
3022;SDS011;1521;53.584;9.938;2024-01-07T05:05:17;3.13;;;1.83;;
3022;SDS011;1521;53.584;9.938;2024-01-07T05:07:43;4.30;;;1.50;;
3022;SDS011;1521;53.584;9.938;2024-01-07T05:10:08;2.60;;;1.97;;
3022;SDS011;1521;53.584;9.938;2024-01-07T05:12:34;3.73;;;1.43;;
3022;SDS011;1521;53.584;9.938;2024-01-07T05:15:00;2.60;;;1.53;;
3022;SDS011;1521;53.584;9.938;2024-01-07T05:17:25;2.10;;;1.30;;
3022;SDS011;1521;53.584;9.938;2024-01-07T05:19:51;1.93;;;1.63;;
3022;SDS011;1521;53.584;9.938;2024-01-07T05:22:16;3.77;;;1.60;;
3022;SDS011;1521;53.584;9.938;2024-01-07T05:24:42;3.10;;;1.83;;
3022;SDS011;1521;53.584;9.938;2024-01-07T05:27:08;2.70;;;1.67;;
3022;SDS011;1521;53.584;9.938;2024-01-07T05:29:34;1.90;;;1.40;;
3022;SDS011;1521;53.584;9.938;2024-01-07T05:31:59;2.23;;;1.60;;
3022;SDS011;1521;53.584;9.938;2024-01-07T05:34:27;3.70;;;1.33;;
3022;SDS011;1521;53.584;9.938;2024-01-07T05:36:52;2.30;;;1.80;;
3022;SDS011;1521;53.584;9.938;2024-01-07T05:39:18;2.33;;;1.60;;
3022;SDS011;1521;53.584;9.938;2024-01-07T05:41:44;2.50;;;1.80;;
3022;SDS011;1521;53.584;9.938;2024-01-07T05:44:11;2.90;;;1.97;;
3022;SDS011;1521;53.584;9.938;2024-01-07T05:46:40;3.33;;;3.00;;
3022;SDS011;1521;53.584;9.938;2024-01-07T05:49:06;2.53;;;1.60;;
3022;SDS011;1521;53.584;9.938;2024-01-07T05:51:32;2.40;;;1.80;;
3022;SDS011;1521;53.584;9.938;2024-01-07T05:53:58;2.10;;;1.60;;
3022;SDS011;1521;53.584;9.938;2024-01-07T05:56:24;5.00;;;1.80;;
3022;SDS011;1521;53.584;9.938;2024-01-07T05:58:49;3.07;;;1.83;;
3022;SDS011;1521;53.584;9.938;2024-01-07T06:01:21;5.03;;;2.27;;
3022;SDS011;1521;53.584;9.938;2024-01-07T06:03:47;3.00;;;1.90;;
3022;SDS011;1521;53.584;9.938;2024-01-07T06:06:13;3.53;;;2.00;;
3022;SDS011;1521;53.584;9.938;2024-01-07T06:08:40;3.00;;;2.20;;
3022;SDS011;1521;53.584;9.938;2024-01-07T06:11:07;3.00;;;2.23;;
3022;SDS011;1521;53.584;9.938;2024-01-07T06:13:33;2.27;;;2.00;;
3022;SDS011;1521;53.584;9.938;2024-01-07T06:15:59;7.33;;;2.80;;
3022;SDS011;1521;53.584;9.938;2024-01-07T06:18:24;3.07;;;2.40;;
3022;SDS011;1521;53.584;9.938;2024-01-07T06:20:50;3.10;;;2.00;;
3022;SDS011;1521;53.584;9.938;2024-01-07T06:23:15;2.97;;;2.30;;
3022;SDS011;1521;53.584;9.938;2024-01-07T06:25:41;4.13;;;2.80;;
3022;SDS011;1521;53.584;9.938;2024-01-07T06:28:06;3.43;;;2.50;;
3022;SDS011;1521;53.584;9.938;2024-01-07T06:30:32;3.20;;;2.30;;
3022;SDS011;1521;53.584;9.938;2024-01-07T06:32:58;3.00;;;2.40;;
3022;SDS011;1521;53.584;9.938;2024-01-07T06:35:24;4.27;;;2.53;;
3022;SDS011;1521;53.584;9.938;2024-01-07T06:37:50;5.23;;;2.73;;
3022;SDS011;1521;53.584;9.938;2024-01-07T06:40:15;3.47;;;2.30;;
3022;SDS011;1521;53.584;9.938;2024-01-07T06:42:41;4.60;;;2.37;;
3022;SDS011;1521;53.584;9.938;2024-01-07T06:45:08;4.70;;;2.73;;
3022;SDS011;1521;53.584;9.938;2024-01-07T06:47:34;5.47;;;2.63;;
3022;SDS011;1521;53.584;9.938;2024-01-07T06:50:00;5.63;;;2.60;;
3022;SDS011;1521;53.584;9.938;2024-01-07T06:52:25;3.10;;;2.20;;
3022;SDS011;1521;53.584;9.938;2024-01-07T06:54:51;3.63;;;2.53;;
3022;SDS011;1521;53.584;9.938;2024-01-07T06:57:16;6.20;;;2.97;;
3022;SDS011;1521;53.584;9.938;2024-01-07T06:59:42;6.40;;;3.07;;
3022;SDS011;1521;53.584;9.938;2024-01-07T07:02:07;4.20;;;2.90;;
3022;SDS011;1521;53.584;9.938;2024-01-07T07:04:33;9.23;;;2.87;;
3022;SDS011;1521;53.584;9.938;2024-01-07T07:06:58;5.03;;;3.53;;
3022;SDS011;1521;53.584;9.938;2024-01-07T07:09:25;7.40;;;3.70;;
3022;SDS011;1521;53.584;9.938;2024-01-07T07:11:51;4.70;;;3.90;;
3022;SDS011;1521;53.584;9.938;2024-01-07T07:14:16;5.50;;;3.67;;
3022;SDS011;1521;53.584;9.938;2024-01-07T07:16:42;4.17;;;3.23;;
3022;SDS011;1521;53.584;9.938;2024-01-07T07:19:07;7.43;;;3.50;;
3022;SDS011;1521;53.584;9.938;2024-01-07T07:21:33;6.43;;;3.80;;
3022;SDS011;1521;53.584;9.938;2024-01-07T07:23:58;5.53;;;3.63;;
3022;SDS011;1521;53.584;9.938;2024-01-07T07:26:24;9.70;;;3.97;;
3022;SDS011;1521;53.584;9.938;2024-01-07T07:28:49;6.63;;;4.53;;
3022;SDS011;1521;53.584;9.938;2024-01-07T07:31:15;8.53;;;4.50;;
3022;SDS011;1521;53.584;9.938;2024-01-07T07:33:40;7.33;;;4.00;;
3022;SDS011;1521;53.584;9.938;2024-01-07T07:36:06;9.10;;;4.23;;
3022;SDS011;1521;53.584;9.938;2024-01-07T07:38:32;8.93;;;4.60;;
3022;SDS011;1521;53.584;9.938;2024-01-07T07:40:59;6.40;;;4.27;;
3022;SDS011;1521;53.584;9.938;2024-01-07T07:43:25;7.80;;;4.30;;
3022;SDS011;1521;53.584;9.938;2024-01-07T07:45:51;6.90;;;4.00;;
3022;SDS011;1521;53.584;9.938;2024-01-07T07:48:17;8.73;;;4.80;;
3022;SDS011;1521;53.584;9.938;2024-01-07T07:50:43;10.83;;;5.03;;
3022;SDS011;1521;53.584;9.938;2024-01-07T07:53:08;14.33;;;4.97;;
3022;SDS011;1521;53.584;9.938;2024-01-07T07:55:34;6.10;;;4.33;;
3022;SDS011;1521;53.584;9.938;2024-01-07T07:58:00;13.67;;;4.80;;
3022;SDS011;1521;53.584;9.938;2024-01-07T08:00:25;13.27;;;4.67;;
3022;SDS011;1521;53.584;9.938;2024-01-07T08:02:51;8.83;;;4.40;;
3022;SDS011;1521;53.584;9.938;2024-01-07T08:05:16;9.00;;;4.40;;
3022;SDS011;1521;53.584;9.938;2024-01-07T08:07:42;7.83;;;4.93;;
3022;SDS011;1521;53.584;9.938;2024-01-07T08:10:08;7.90;;;4.10;;
3022;SDS011;1521;53.584;9.938;2024-01-07T08:12:34;10.47;;;4.50;;
3022;SDS011;1521;53.584;9.938;2024-01-07T08:14:59;15.10;;;4.60;;
3022;SDS011;1521;53.584;9.938;2024-01-07T08:17:25;7.70;;;4.30;;
3022;SDS011;1521;53.584;9.938;2024-01-07T08:19:51;5.80;;;4.17;;
3022;SDS011;1521;53.584;9.938;2024-01-07T08:22:17;9.73;;;4.37;;
3022;SDS011;1521;53.584;9.938;2024-01-07T08:24:43;7.43;;;4.33;;
3022;SDS011;1521;53.584;9.938;2024-01-07T08:27:09;7.07;;;4.17;;
3022;SDS011;1521;53.584;9.938;2024-01-07T08:29:34;9.33;;;4.33;;
3022;SDS011;1521;53.584;9.938;2024-01-07T08:32:00;8.37;;;4.40;;
3022;SDS011;1521;53.584;9.938;2024-01-07T08:34:26;4.73;;;3.60;;
3022;SDS011;1521;53.584;9.938;2024-01-07T08:36:51;6.50;;;3.57;;
3022;SDS011;1521;53.584;9.938;2024-01-07T08:39:19;5.87;;;4.07;;
3022;SDS011;1521;53.584;9.938;2024-01-07T08:41:44;6.70;;;3.87;;
3022;SDS011;1521;53.584;9.938;2024-01-07T08:44:10;5.07;;;3.83;;
3022;SDS011;1521;53.584;9.938;2024-01-07T08:46:36;6.53;;;4.40;;
3022;SDS011;1521;53.584;9.938;2024-01-07T08:49:02;8.00;;;4.70;;
3022;SDS011;1521;53.584;9.938;2024-01-07T08:51:28;6.40;;;4.00;;
3022;SDS011;1521;53.584;9.938;2024-01-07T08:53:54;12.17;;;3.90;;
3022;SDS011;1521;53.584;9.938;2024-01-07T08:56:20;6.63;;;3.20;;
3022;SDS011;1521;53.584;9.938;2024-01-07T08:58:45;9.00;;;4.20;;
3022;SDS011;1521;53.584;9.938;2024-01-07T09:01:11;6.27;;;3.90;;
3022;SDS011;1521;53.584;9.938;2024-01-07T09:03:39;5.07;;;3.40;;
3022;SDS011;1521;53.584;9.938;2024-01-07T09:06:05;5.03;;;3.50;;
3022;SDS011;1521;53.584;9.938;2024-01-07T09:08:30;7.10;;;3.47;;
3022;SDS011;1521;53.584;9.938;2024-01-07T09:10:56;7.80;;;3.77;;
3022;SDS011;1521;53.584;9.938;2024-01-07T09:13:22;7.53;;;4.07;;
3022;SDS011;1521;53.584;9.938;2024-01-07T09:15:47;5.13;;;3.23;;
3022;SDS011;1521;53.584;9.938;2024-01-07T09:18:13;7.80;;;2.93;;
3022;SDS011;1521;53.584;9.938;2024-01-07T09:20:39;6.63;;;3.73;;
3022;SDS011;1521;53.584;9.938;2024-01-07T09:23:04;4.93;;;3.60;;
3022;SDS011;1521;53.584;9.938;2024-01-07T09:25:30;4.70;;;3.53;;
3022;SDS011;1521;53.584;9.938;2024-01-07T09:27:55;7.97;;;3.20;;
3022;SDS011;1521;53.584;9.938;2024-01-07T09:30:21;5.23;;;3.47;;
3022;SDS011;1521;53.584;9.938;2024-01-07T09:32:47;7.30;;;3.60;;
3022;SDS011;1521;53.584;9.938;2024-01-07T09:35:12;6.03;;;3.70;;
3022;SDS011;1521;53.584;9.938;2024-01-07T09:37:38;9.63;;;4.50;;
3022;SDS011;1521;53.584;9.938;2024-01-07T09:40:03;8.27;;;4.33;;
3022;SDS011;1521;53.584;9.938;2024-01-07T09:42:31;9.13;;;3.50;;
3022;SDS011;1521;53.584;9.938;2024-01-07T09:44:57;9.40;;;4.33;;
3022;SDS011;1521;53.584;9.938;2024-01-07T09:47:27;8.10;;;3.80;;
3022;SDS011;1521;53.584;9.938;2024-01-07T09:49:53;8.00;;;3.93;;
3022;SDS011;1521;53.584;9.938;2024-01-07T09:52:18;6.90;;;4.17;;
3022;SDS011;1521;53.584;9.938;2024-01-07T09:54:46;12.23;;;4.13;;
3022;SDS011;1521;53.584;9.938;2024-01-07T09:57:16;6.80;;;4.03;;
3022;SDS011;1521;53.584;9.938;2024-01-07T09:59:41;7.03;;;3.77;;
3022;SDS011;1521;53.584;9.938;2024-01-07T10:02:07;6.40;;;4.13;;
3022;SDS011;1521;53.584;9.938;2024-01-07T10:04:32;6.70;;;4.00;;
3022;SDS011;1521;53.584;9.938;2024-01-07T10:06:58;7.13;;;4.10;;
3022;SDS011;1521;53.584;9.938;2024-01-07T10:09:24;5.53;;;3.30;;
3022;SDS011;1521;53.584;9.938;2024-01-07T10:11:53;7.00;;;3.80;;
3022;SDS011;1521;53.584;9.938;2024-01-07T10:14:19;6.30;;;3.50;;
3022;SDS011;1521;53.584;9.938;2024-01-07T10:16:49;7.43;;;3.80;;
3022;SDS011;1521;53.584;9.938;2024-01-07T10:19:21;6.67;;;4.30;;
3022;SDS011;1521;53.584;9.938;2024-01-07T10:22:00;6.40;;;3.67;;
3022;SDS011;1521;53.584;9.938;2024-01-07T10:24:31;5.47;;;3.67;;
3022;SDS011;1521;53.584;9.938;2024-01-07T10:27:02;5.97;;;3.67;;
3022;SDS011;1521;53.584;9.938;2024-01-07T10:29:28;5.73;;;3.43;;
3022;SDS011;1521;53.584;9.938;2024-01-07T10:31:57;6.77;;;3.97;;
3022;SDS011;1521;53.584;9.938;2024-01-07T10:34:23;7.30;;;3.67;;
3022;SDS011;1521;53.584;9.938;2024-01-07T10:36:51;10.63;;;4.20;;
3022;SDS011;1521;53.584;9.938;2024-01-07T10:39:19;6.10;;;4.20;;
3022;SDS011;1521;53.584;9.938;2024-01-07T10:41:45;7.10;;;4.70;;
3022;SDS011;1521;53.584;9.938;2024-01-07T10:44:12;4.83;;;3.60;;
3022;SDS011;1521;53.584;9.938;2024-01-07T10:46:38;4.57;;;3.40;;
3022;SDS011;1521;53.584;9.938;2024-01-07T10:49:07;6.00;;;3.27;;
3022;SDS011;1521;53.584;9.938;2024-01-07T10:52:04;5.60;;;3.20;;
3022;SDS011;1521;53.584;9.938;2024-01-07T10:54:34;9.33;;;3.77;;
3022;SDS011;1521;53.584;9.938;2024-01-07T10:57:13;13.97;;;3.17;;
3022;SDS011;1521;53.584;9.938;2024-01-07T10:59:45;5.27;;;3.17;;
3022;SDS011;1521;53.584;9.938;2024-01-07T11:02:13;6.47;;;2.93;;
3022;SDS011;1521;53.584;9.938;2024-01-07T11:07:17;4.87;;;3.37;;
3022;SDS011;1521;53.584;9.938;2024-01-07T11:09:54;5.60;;;3.33;;
3022;SDS011;1521;53.584;9.938;2024-01-07T11:12:29;5.00;;;3.23;;
3022;SDS011;1521;53.584;9.938;2024-01-07T11:14:55;4.30;;;3.23;;
3022;SDS011;1521;53.584;9.938;2024-01-07T11:17:39;6.67;;;3.20;;
3022;SDS011;1521;53.584;9.938;2024-01-07T11:20:07;7.03;;;2.97;;
3022;SDS011;1521;53.584;9.938;2024-01-07T11:22:39;5.53;;;3.30;;
3022;SDS011;1521;53.584;9.938;2024-01-07T11:25:20;7.07;;;4.07;;
3022;SDS011;1521;53.584;9.938;2024-01-07T11:27:55;4.43;;;2.87;;
3022;SDS011;1521;53.584;9.938;2024-01-07T11:30:26;3.37;;;3.07;;
3022;SDS011;1521;53.584;9.938;2024-01-07T11:32:58;5.43;;;2.97;;
3022;SDS011;1521;53.584;9.938;2024-01-07T11:38:23;4.83;;;3.00;;
3022;SDS011;1521;53.584;9.938;2024-01-07T11:40:49;6.30;;;2.80;;
3022;SDS011;1521;53.584;9.938;2024-01-07T11:43:16;4.27;;;3.00;;
3022;SDS011;1521;53.584;9.938;2024-01-07T11:45:42;4.13;;;3.00;;
3022;SDS011;1521;53.584;9.938;2024-01-07T11:48:07;3.13;;;2.70;;
3022;SDS011;1521;53.584;9.938;2024-01-07T11:50:34;7.47;;;3.43;;
3022;SDS011;1521;53.584;9.938;2024-01-07T11:53:00;5.00;;;3.20;;
3022;SDS011;1521;53.584;9.938;2024-01-07T11:55:26;4.57;;;2.90;;
3022;SDS011;1521;53.584;9.938;2024-01-07T11:57:54;5.03;;;3.40;;
3022;SDS011;1521;53.584;9.938;2024-01-07T12:00:21;3.90;;;2.73;;
3022;SDS011;1521;53.584;9.938;2024-01-07T12:02:46;4.57;;;2.87;;
3022;SDS011;1521;53.584;9.938;2024-01-07T12:05:12;6.13;;;2.80;;
3022;SDS011;1521;53.584;9.938;2024-01-07T12:07:40;10.23;;;3.60;;
3022;SDS011;1521;53.584;9.938;2024-01-07T12:10:07;3.73;;;2.93;;
3022;SDS011;1521;53.584;9.938;2024-01-07T12:12:37;6.60;;;3.80;;
3022;SDS011;1521;53.584;9.938;2024-01-07T12:15:10;4.07;;;2.60;;
3022;SDS011;1521;53.584;9.938;2024-01-07T12:17:41;4.23;;;3.23;;
3022;SDS011;1521;53.584;9.938;2024-01-07T12:20:07;5.70;;;2.77;;
3022;SDS011;1521;53.584;9.938;2024-01-07T12:22:37;4.67;;;2.80;;
3022;SDS011;1521;53.584;9.938;2024-01-07T12:25:04;2.97;;;2.67;;
3022;SDS011;1521;53.584;9.938;2024-01-07T12:27:31;4.53;;;3.00;;
3022;SDS011;1521;53.584;9.938;2024-01-07T12:29:57;4.00;;;2.90;;
3022;SDS011;1521;53.584;9.938;2024-01-07T12:32:25;4.70;;;3.20;;
3022;SDS011;1521;53.584;9.938;2024-01-07T12:34:51;4.27;;;3.00;;
3022;SDS011;1521;53.584;9.938;2024-01-07T12:37:17;4.00;;;2.50;;
3022;SDS011;1521;53.584;9.938;2024-01-07T12:39:42;4.27;;;2.53;;
3022;SDS011;1521;53.584;9.938;2024-01-07T12:42:08;4.17;;;2.63;;
3022;SDS011;1521;53.584;9.938;2024-01-07T12:44:35;3.80;;;2.57;;
3022;SDS011;1521;53.584;9.938;2024-01-07T12:47:01;3.63;;;2.33;;
3022;SDS011;1521;53.584;9.938;2024-01-07T12:49:28;4.13;;;2.90;;
3022;SDS011;1521;53.584;9.938;2024-01-07T12:51:54;10.23;;;2.87;;
3022;SDS011;1521;53.584;9.938;2024-01-07T12:54:19;4.13;;;2.73;;
3022;SDS011;1521;53.584;9.938;2024-01-07T12:56:46;3.50;;;2.60;;
3022;SDS011;1521;53.584;9.938;2024-01-07T12:59:12;2.83;;;2.23;;
3022;SDS011;1521;53.584;9.938;2024-01-07T13:01:37;3.40;;;2.50;;
3022;SDS011;1521;53.584;9.938;2024-01-07T13:04:03;2.93;;;2.40;;
3022;SDS011;1521;53.584;9.938;2024-01-07T13:06:29;2.73;;;2.50;;
3022;SDS011;1521;53.584;9.938;2024-01-07T13:08:54;5.80;;;2.77;;
3022;SDS011;1521;53.584;9.938;2024-01-07T13:11:20;3.37;;;3.07;;
3022;SDS011;1521;53.584;9.938;2024-01-07T13:13:46;3.33;;;2.70;;
3022;SDS011;1521;53.584;9.938;2024-01-07T13:16:12;2.90;;;2.20;;
3022;SDS011;1521;53.584;9.938;2024-01-07T13:18:38;4.27;;;2.60;;
3022;SDS011;1521;53.584;9.938;2024-01-07T13:21:03;5.83;;;3.23;;
3022;SDS011;1521;53.584;9.938;2024-01-07T13:23:31;4.23;;;2.60;;
3022;SDS011;1521;53.584;9.938;2024-01-07T13:25:57;4.63;;;2.93;;
3022;SDS011;1521;53.584;9.938;2024-01-07T13:28:23;2.97;;;2.30;;
3022;SDS011;1521;53.584;9.938;2024-01-07T13:30:49;4.47;;;2.37;;
3022;SDS011;1521;53.584;9.938;2024-01-07T13:33:14;5.83;;;2.30;;
3022;SDS011;1521;53.584;9.938;2024-01-07T13:35:42;2.50;;;2.20;;
3022;SDS011;1521;53.584;9.938;2024-01-07T13:38:08;2.30;;;2.10;;
3022;SDS011;1521;53.584;9.938;2024-01-07T13:40:34;3.87;;;2.47;;
3022;SDS011;1521;53.584;9.938;2024-01-07T13:43:00;3.53;;;2.07;;
3022;SDS011;1521;53.584;9.938;2024-01-07T13:45:26;3.67;;;2.60;;
3022;SDS011;1521;53.584;9.938;2024-01-07T13:47:51;2.63;;;2.43;;
3022;SDS011;1521;53.584;9.938;2024-01-07T13:50:17;2.83;;;2.40;;
3022;SDS011;1521;53.584;9.938;2024-01-07T13:52:43;4.33;;;2.30;;
3022;SDS011;1521;53.584;9.938;2024-01-07T13:55:08;2.47;;;2.00;;
3022;SDS011;1521;53.584;9.938;2024-01-07T13:57:34;2.13;;;1.93;;
3022;SDS011;1521;53.584;9.938;2024-01-07T14:00:00;3.80;;;2.00;;
3022;SDS011;1521;53.584;9.938;2024-01-07T14:02:33;2.27;;;2.00;;
3022;SDS011;1521;53.584;9.938;2024-01-07T14:04:58;4.97;;;2.40;;
3022;SDS011;1521;53.584;9.938;2024-01-07T14:07:24;3.80;;;1.90;;
3022;SDS011;1521;53.584;9.938;2024-01-07T14:09:51;2.90;;;2.30;;
3022;SDS011;1521;53.584;9.938;2024-01-07T14:12:17;2.80;;;2.10;;
3022;SDS011;1521;53.584;9.938;2024-01-07T14:14:42;4.23;;;2.40;;
3022;SDS011;1521;53.584;9.938;2024-01-07T14:17:08;3.17;;;2.30;;
3022;SDS011;1521;53.584;9.938;2024-01-07T14:19:34;3.27;;;2.53;;
3022;SDS011;1521;53.584;9.938;2024-01-07T14:21:59;4.13;;;2.10;;
3022;SDS011;1521;53.584;9.938;2024-01-07T14:24:25;2.90;;;2.17;;
3022;SDS011;1521;53.584;9.938;2024-01-07T14:26:51;3.60;;;2.57;;
3022;SDS011;1521;53.584;9.938;2024-01-07T14:29:17;3.20;;;2.43;;
3022;SDS011;1521;53.584;9.938;2024-01-07T14:31:42;3.23;;;2.40;;
3022;SDS011;1521;53.584;9.938;2024-01-07T14:34:08;3.70;;;2.63;;
3022;SDS011;1521;53.584;9.938;2024-01-07T14:36:33;5.90;;;2.97;;
3022;SDS011;1521;53.584;9.938;2024-01-07T14:38:59;3.37;;;2.20;;
3022;SDS011;1521;53.584;9.938;2024-01-07T14:41:25;5.50;;;2.60;;
3022;SDS011;1521;53.584;9.938;2024-01-07T14:43:50;5.40;;;2.60;;
3022;SDS011;1521;53.584;9.938;2024-01-07T14:46:16;5.33;;;3.03;;
3022;SDS011;1521;53.584;9.938;2024-01-07T14:48:41;4.03;;;2.10;;
3022;SDS011;1521;53.584;9.938;2024-01-07T14:51:07;2.30;;;2.10;;
3022;SDS011;1521;53.584;9.938;2024-01-07T14:53:32;5.33;;;2.50;;
3022;SDS011;1521;53.584;9.938;2024-01-07T14:55:58;7.73;;;2.23;;
3022;SDS011;1521;53.584;9.938;2024-01-07T14:58:26;3.20;;;2.77;;
3022;SDS011;1521;53.584;9.938;2024-01-07T15:00:52;3.70;;;2.23;;
3022;SDS011;1521;53.584;9.938;2024-01-07T15:03:18;3.73;;;2.57;;
3022;SDS011;1521;53.584;9.938;2024-01-07T15:05:44;5.40;;;2.60;;
3022;SDS011;1521;53.584;9.938;2024-01-07T15:08:10;5.33;;;2.63;;
3022;SDS011;1521;53.584;9.938;2024-01-07T15:10:39;2.90;;;2.40;;
3022;SDS011;1521;53.584;9.938;2024-01-07T15:13:06;2.87;;;2.20;;
3022;SDS011;1521;53.584;9.938;2024-01-07T15:15:31;3.00;;;2.50;;